Time;durP1;ratioP1;P1;durP2;ratioP2;P2;SDS_P1;SDS_P2;PMS_P1;PMS_P2;Temp;Humidity;BMP_temperature;BMP_pressure;BME280_temperature;BME280_humidity;BME280_pressure;Samples;Min_cycle;Max_cycle;Signal;HPM_P1;HPM_P2
2023/05/12 00:02:02;;;;;;;1.95;1.25;;;23.60;51.90;;;;;;4129004;28;20074;-77
2023/05/12 00:04:24;;;;;;;2.42;1.30;;;23.40;52.10;;;;;;4124724;28;20062;-77
2023/05/12 00:06:49;;;;;;;11.60;1.60;;;23.40;52.30;;;;;;4125022;28;20100;-77
2023/05/12 00:09:11;;;;;;;5.05;1.60;;;23.30;52.40;;;;;;4130207;28;20140;-77
2023/05/12 00:11:35;;;;;;;4.07;1.40;;;23.20;52.50;;;;;;4129748;28;20050;-78
2023/05/12 00:13:57;;;;;;;3.63;1.55;;;23.10;52.80;;;;;;4138324;28;20511;-76
2023/05/12 00:16:20;;;;;;;4.25;1.63;;;23.00;53.00;;;;;;4129556;28;20046;-77
2023/05/12 00:18:42;;;;;;;10.50;1.35;;;23.00;53.10;;;;;;4121780;28;20076;-77
2023/05/12 00:21:07;;;;;;;3.70;1.58;;;22.90;53.20;;;;;;4130486;28;20051;-76
2023/05/12 00:23:35;;;;;;;3.00;1.10;;;22.80;53.20;;;;;;4128514;28;20030;-76
2023/05/12 00:25:57;;;;;;;2.00;1.13;;;22.80;53.30;;;;;;4131542;28;20069;-78
2023/05/12 00:28:20;;;;;;;1.13;0.93;;;22.70;53.60;;;;;;4129760;28;20409;-76
2023/05/12 00:30:42;;;;;;;1.65;1.10;;;22.70;53.70;;;;;;4141687;28;20069;-74
2023/05/12 00:33:05;;;;;;;2.78;1.13;;;22.60;53.70;;;;;;4129379;28;20042;-79
2023/05/12 00:35:27;;;;;;;3.35;1.10;;;22.50;53.70;;;;;;4129875;28;20027;-75
2023/05/12 00:37:50;;;;;;;4.05;1.20;;;22.50;53.80;;;;;;4130779;28;20049;-77
2023/05/12 00:40:12;;;;;;;2.22;1.17;;;22.40;53.90;;;;;;4116321;28;20070;-76
2023/05/12 00:42:35;;;;;;;1.63;0.98;;;22.30;53.90;;;;;;4122412;28;20044;-75
2023/05/12 00:45:06;;;;;;;7.03;1.25;;;22.30;54.30;;;;;;4133873;28;20058;-74
2023/05/12 00:47:29;;;;;;;1.45;0.90;;;22.20;54.30;;;;;;4132411;28;20416;-75
2023/05/12 00:49:52;;;;;;;5.45;1.20;;;22.20;54.40;;;;;;4117861;28;20418;-77
2023/05/12 00:52:14;;;;;;;2.53;1.10;;;22.10;54.50;;;;;;4139129;28;20408;-74
2023/05/12 00:54:38;;;;;;;1.50;1.00;;;22.10;54.70;;;;;;4119475;28;20046;-80
2023/05/12 00:57:03;;;;;;;2.03;1.00;;;22.00;54.80;;;;;;4121799;28;20117;-78
2023/05/12 00:59:26;;;;;;;7.20;1.63;;;22.00;54.90;;;;;;4121340;28;20042;-76
2023/05/12 01:01:55;;;;;;;4.35;1.48;;;21.90;55.10;;;;;;4120622;28;20042;-83
2023/05/12 01:04:18;;;;;;;6.13;1.15;;;21.80;54.90;;;;;;4126480;28;21261;-77
2023/05/12 01:07:04;;;;;;;3.63;1.42;;;21.70;55.10;;;;;;4133185;28;20066;-77
2023/05/12 01:09:26;;;;;;;4.22;1.45;;;21.70;55.10;;;;;;4133247;28;20041;-76
2023/05/12 01:11:49;;;;;;;3.47;1.30;;;21.60;55.60;;;;;;4118635;28;20090;-74
2023/05/12 01:14:11;;;;;;;3.25;1.20;;;21.60;55.80;;;;;;4133614;28;20069;-74
2023/05/12 01:16:58;;;;;;;4.55;1.73;;;21.50;55.80;;;;;;4140779;28;20042;-80
2023/05/12 01:19:48;;;;;;;2.67;1.30;;;21.50;55.80;;;;;;4120325;28;20188;-78
2023/05/12 01:22:17;;;;;;;2.72;1.10;;;21.50;55.90;;;;;;4112857;28;20069;-76
2023/05/12 01:25:10;;;;;;;2.42;1.25;;;21.50;56.00;;;;;;4130550;28;20050;-77
2023/05/12 01:27:33;;;;;;;3.05;1.30;;;21.40;55.90;;;;;;4131559;28;20045;-77
2023/05/12 01:30:21;;;;;;;1.97;1.00;;;21.40;56.10;;;;;;4122659;28;20049;-79
2023/05/12 01:32:44;;;;;;;1.42;1.10;;;21.40;56.10;;;;;;4113648;28;20450;-71
2023/05/12 01:35:09;;;;;;;2.63;1.02;;;21.30;56.10;;;;;;4128598;28;20053;-78
2023/05/12 01:37:35;;;;;;;5.43;1.27;;;21.30;56.20;;;;;;4125393;28;20031;-81
2023/05/12 01:39:57;;;;;;;1.95;1.00;;;21.30;56.30;;;;;;4114169;28;20165;-76
2023/05/12 01:42:22;;;;;;;2.47;1.00;;;21.30;56.40;;;;;;4132023;28;20044;-71
2023/05/12 01:44:45;;;;;;;1.33;0.95;;;21.30;56.50;;;;;;4131729;28;20050;-77
2023/05/12 01:47:10;;;;;;;3.35;1.10;;;21.20;56.40;;;;;;4134069;28;20042;-75
2023/05/12 01:49:35;;;;;;;3.20;1.23;;;21.20;56.40;;;;;;4128087;28;20046;-84
2023/05/12 01:51:57;;;;;;;2.63;0.90;;;21.20;56.60;;;;;;4113941;28;20065;-75
2023/05/12 01:54:20;;;;;;;1.40;1.20;;;21.20;56.80;;;;;;4135150;28;20050;-72
2023/05/12 01:56:42;;;;;;;3.35;1.00;;;21.20;56.80;;;;;;4127589;28;20038;-73
2023/05/12 01:59:07;;;;;;;1.23;0.90;;;21.10;56.80;;;;;;4119172;28;20043;-74
2023/05/12 02:01:31;;;;;;;1.08;0.88;;;21.10;57.00;;;;;;4114586;28;20042;-75
2023/05/12 02:03:56;;;;;;;1.07;0.90;;;21.10;57.10;;;;;;4127450;28;20053;-76
2023/05/12 02:06:18;;;;;;;6.63;1.40;;;21.10;57.00;;;;;;4135140;28;20046;-72
2023/05/12 02:08:41;;;;;;;2.85;1.70;;;21.10;57.60;;;;;;4127471;28;20791;-73
2023/05/12 02:11:07;;;;;;;3.80;1.80;;;21.10;57.40;;;;;;4133012;28;20685;-78
2023/05/12 02:13:30;;;;;;;3.40;1.63;;;21.10;57.50;;;;;;4125423;28;20049;-71
2023/05/12 02:15:55;;;;;;;2.55;1.67;;;21.10;57.60;;;;;;4123482;28;20362;-76
2023/05/12 02:18:17;;;;;;;3.25;2.03;;;21.10;57.70;;;;;;4114304;28;20031;-77
2023/05/12 02:20:43;;;;;;;5.47;1.95;;;21.00;57.80;;;;;;4129046;28;20038;-75
2023/05/12 02:23:09;;;;;;;2.95;1.63;;;21.10;58.00;;;;;;4132070;28;20106;-76
2023/05/12 02:25:31;;;;;;;4.00;1.90;;;21.00;58.20;;;;;;4115708;28;20066;-71
2023/05/12 02:27:53;;;;;;;3.40;2.00;;;21.10;58.20;;;;;;4136044;28;20451;-73
2023/05/12 02:30:16;;;;;;;2.75;1.75;;;21.10;58.10;;;;;;4134164;28;20053;-72
2023/05/12 02:32:38;;;;;;;4.93;2.55;;;21.10;57.60;;;;;;4131728;28;20397;-72
2023/05/12 02:35:01;;;;;;;4.13;2.00;;;21.00;57.40;;;;;;4138875;28;20064;-74
2023/05/12 02:37:26;;;;;;;3.83;2.33;;;21.00;57.30;;;;;;4130187;28;20042;-77
2023/05/12 02:39:49;;;;;;;3.15;2.05;;;21.00;57.30;;;;;;4130433;28;20169;-75
2023/05/12 02:42:11;;;;;;;4.28;2.08;;;21.00;57.40;;;;;;4115214;28;20031;-77
2023/05/12 02:44:34;;;;;;;4.13;2.10;;;20.90;57.40;;;;;;4135360;28;20125;-78
2023/05/12 02:46:56;;;;;;;3.85;2.15;;;20.90;57.50;;;;;;4114588;28;20061;-79
2023/05/12 02:49:20;;;;;;;3.08;2.00;;;20.80;57.50;;;;;;4134201;28;20038;-79
2023/05/12 02:51:42;;;;;;;4.40;2.10;;;20.90;57.50;;;;;;4114184;28;20039;-77
2023/05/12 02:54:05;;;;;;;3.95;1.80;;;20.90;57.50;;;;;;4135784;28;20624;-78
2023/05/12 02:56:29;;;;;;;2.50;1.75;;;20.80;58.10;;;;;;4119776;28;20149;-75
2023/05/12 02:58:52;;;;;;;7.03;2.20;;;20.80;58.60;;;;;;4140226;28;20049;-77
2023/05/12 03:01:14;;;;;;;5.30;2.20;;;20.80;59.00;;;;;;4116757;28;20031;-82
2023/05/12 03:03:37;;;;;;;4.13;2.15;;;20.90;59.90;;;;;;4124816;28;20038;-78
2023/05/12 03:06:00;;;;;;;4.05;1.90;;;20.90;59.20;;;;;;4130427;28;20090;-82
2023/05/12 03:08:22;;;;;;;5.25;1.70;;;20.90;59.50;;;;;;4131048;28;20066;-81
2023/05/12 03:10:45;;;;;;;3.25;1.60;;;21.00;59.70;;;;;;4136128;28;20076;-80
2023/05/12 03:13:07;;;;;;;3.35;1.50;;;21.00;60.00;;;;;;4131075;28;20045;-80
2023/05/12 03:15:30;;;;;;;1.80;0.90;;;21.00;59.90;;;;;;4125830;28;20113;-81
2023/05/12 03:17:52;;;;;;;3.50;1.30;;;21.10;60.10;;;;;;4132183;28;20133;-81
2023/05/12 03:20:15;;;;;;;5.32;1.77;;;21.10;60.00;;;;;;4124372;28;20030;-81
2023/05/12 03:22:38;;;;;;;2.47;1.17;;;21.20;60.10;;;;;;4115327;28;20070;-80
2023/05/12 03:25:00;;;;;;;5.97;1.85;;;21.20;60.10;;;;;;4126086;28;20046;-83
2023/05/12 03:27:23;;;;;;;2.80;1.33;;;21.30;60.20;;;;;;4134447;28;20183;-81
2023/05/12 03:29:48;;;;;;;3.35;1.13;;;21.30;60.00;;;;;;4137617;28;20042;-82
2023/05/12 03:32:11;;;;;;;2.97;1.30;;;21.40;59.90;;;;;;4133319;28;20090;-81
2023/05/12 03:34:33;;;;;;;2.28;1.08;;;21.40;59.90;;;;;;4122893;28;20111;-79
2023/05/12 03:36:56;;;;;;;1.17;1.00;;;21.50;59.80;;;;;;4121758;28;20574;-79
2023/05/12 03:39:18;;;;;;;2.25;1.13;;;21.50;59.70;;;;;;4130138;28;20139;-76
2023/05/12 03:41:41;;;;;;;2.35;1.05;;;21.60;59.70;;;;;;4128155;28;20075;-80
2023/05/12 03:44:04;;;;;;;1.67;1.00;;;21.60;59.60;;;;;;4108236;28;20210;-82
2023/05/12 03:46:27;;;;;;;2.42;1.02;;;21.70;59.50;;;;;;4127826;28;20101;-78
2023/05/12 03:48:50;;;;;;;1.67;0.98;;;21.80;59.50;;;;;;4137586;28;20046;-78
2023/05/12 03:51:12;;;;;;;2.15;1.10;;;21.80;59.50;;;;;;4138807;28;20062;-81
2023/05/12 03:53:44;;;;;;;1.33;0.90;;;21.90;59.40;;;;;;4126569;28;20402;-81
2023/05/12 03:56:06;;;;;;;2.35;1.27;;;22.00;59.30;;;;;;4109350;28;20452;-82
2023/05/12 03:58:32;;;;;;;5.07;1.02;;;22.00;59.30;;;;;;4135702;28;20046;-83
2023/05/12 04:00:56;;;;;;;1.70;0.80;;;22.00;59.30;;;;;;4121793;28;20039;-80
2023/05/12 04:03:19;;;;;;;2.10;0.93;;;22.10;59.30;;;;;;4114692;28;20058;-78
2023/05/12 04:05:41;;;;;;;1.45;0.80;;;22.10;59.30;;;;;;4117951;28;20050;-78
2023/05/12 04:08:04;;;;;;;2.55;0.80;;;22.10;59.30;;;;;;4114367;28;20043;-81
2023/05/12 04:10:27;;;;;;;2.08;0.80;;;22.20;59.30;;;;;;4118514;28;20095;-78
2023/05/12 04:12:53;;;;;;;3.95;1.00;;;22.20;59.30;;;;;;4130720;28;20798;-83
2023/05/12 04:15:24;;;;;;;1.58;0.80;;;22.30;59.20;;;;;;4117253;28;20059;-84
2023/05/12 04:17:47;;;;;;;1.55;1.10;;;22.40;59.10;;;;;;4137727;28;20081;-79
2023/05/12 04:20:10;;;;;;;1.77;1.02;;;22.50;59.00;;;;;;4123812;28;20046;-83
2023/05/12 04:22:32;;;;;;;3.58;1.10;;;22.50;58.80;;;;;;4113675;28;20077;-78
2023/05/12 04:24:55;;;;;;;1.10;0.63;;;22.60;58.60;;;;;;4136668;28;20126;-80
2023/05/12 04:27:17;;;;;;;1.52;1.00;;;22.70;58.50;;;;;;4131465;28;20099;-80
2023/05/12 04:29:40;;;;;;;2.20;0.88;;;22.70;58.50;;;;;;4131679;28;20097;-82
2023/05/12 04:32:02;;;;;;;1.15;0.80;;;22.80;58.40;;;;;;4119935;28;20042;-84
2023/05/12 04:34:25;;;;;;;2.13;0.93;;;22.90;58.20;;;;;;4129789;28;20080;-82
2023/05/12 04:36:47;;;;;;;1.05;0.80;;;23.00;58.10;;;;;;4118136;28;20715;-81
2023/05/12 04:39:36;;;;;;;2.47;1.08;;;23.00;58.10;;;;;;4109379;28;20038;-81
2023/05/12 04:42:01;;;;;;;1.42;0.80;;;23.10;58.50;;;;;;4135315;28;20069;-80
2023/05/12 04:44:23;;;;;;;2.78;1.08;;;23.20;57.90;;;;;;4136366;28;20070;-80
2023/05/12 04:46:45;;;;;;;1.23;0.90;;;23.30;57.80;;;;;;4134029;28;20487;-77
2023/05/12 04:49:08;;;;;;;2.85;1.02;;;23.40;57.60;;;;;;4125529;28;20125;-81
2023/05/12 04:51:40;;;;;;;2.53;1.00;;;23.40;57.40;;;;;;4131617;28;20080;-85
2023/05/12 04:54:03;;;;;;;1.75;0.80;;;23.50;57.20;;;;;;4128050;28;20496;-81
2023/05/12 04:56:25;;;;;;;1.48;0.80;;;23.60;57.10;;;;;;4137996;28;20062;-81
2023/05/12 04:58:48;;;;;;;1.75;0.90;;;23.70;57.00;;;;;;4131479;28;20100;-80
2023/05/12 05:01:11;;;;;;;1.52;0.80;;;23.70;57.00;;;;;;4142845;28;20037;-80
2023/05/12 05:03:36;;;;;;;1.53;0.73;;;23.80;56.90;;;;;;4129044;28;20042;-76
2023/05/12 05:05:59;;;;;;;1.25;0.80;;;23.80;56.70;;;;;;4107247;28;20401;-78
2023/05/12 05:08:21;;;;;;;2.50;1.00;;;23.90;57.30;;;;;;4113608;28;20541;-78
2023/05/12 05:10:44;;;;;;;2.05;1.00;;;23.90;56.70;;;;;;4107811;28;20054;-77
2023/05/12 05:13:06;;;;;;;1.77;0.90;;;23.90;56.60;;;;;;4127291;28;20085;-74
2023/05/12 05:15:29;;;;;;;1.70;1.00;;;24.00;56.70;;;;;;4108359;28;20234;-74
2023/05/12 05:17:51;;;;;;;1.17;0.80;;;24.10;56.70;;;;;;4110286;28;20038;-76
2023/05/12 05:20:14;;;;;;;1.77;1.08;;;24.10;56.70;;;;;;4132339;28;20054;-77
2023/05/12 05:22:38;;;;;;;2.05;1.02;;;24.10;56.60;;;;;;4109365;28;20043;-77
2023/05/12 05:25:00;;;;;;;1.88;1.20;;;24.20;56.40;;;;;;4127878;28;20402;-79
2023/05/12 05:27:23;;;;;;;1.38;0.63;;;24.20;56.30;;;;;;4126515;28;20045;-79
2023/05/12 05:29:48;;;;;;;1.58;0.90;;;24.20;56.20;;;;;;4124501;28;20511;-80
2023/05/12 05:32:11;;;;;;;1.70;1.00;;;24.30;56.20;;;;;;4131702;28;20046;-79
2023/05/12 05:34:33;;;;;;;1.38;0.90;;;24.30;56.00;;;;;;4118783;28;20045;-84
2023/05/12 05:36:56;;;;;;;1.38;0.77;;;24.30;56.10;;;;;;4121254;28;20180;-78
2023/05/12 05:39:18;;;;;;;1.65;0.80;;;24.30;56.00;;;;;;4128044;28;20046;-75
2023/05/12 05:41:41;;;;;;;1.98;1.35;;;24.30;56.00;;;;;;4129927;28;20053;-76
2023/05/12 05:44:03;;;;;;;3.00;0.77;;;24.30;56.10;;;;;;4101156;28;20051;-77
2023/05/12 05:46:25;;;;;;;2.95;1.00;;;24.30;56.00;;;;;;4110618;28;20045;-75
2023/05/12 05:48:48;;;;;;;1.25;0.85;;;24.20;56.00;;;;;;4122237;28;20039;-77
2023/05/12 05:51:32;;;;;;;1.10;0.90;;;24.20;56.00;;;;;;4123910;28;20042;-77
2023/05/12 05:54:14;;;;;;;1.48;0.77;;;24.20;56.00;;;;;;4126267;28;20567;-77
2023/05/12 05:56:36;;;;;;;1.50;0.80;;;24.20;56.20;;;;;;4100200;28;20043;-77
2023/05/12 05:59:08;;;;;;;1.50;0.90;;;24.20;56.30;;;;;;4114866;28;20105;-78
2023/05/12 06:01:31;;;;;;;1.83;1.00;;;24.20;56.40;;;;;;4111142;28;20557;-75
2023/05/12 06:03:54;;;;;;;1.95;0.82;;;24.10;56.40;;;;;;4119394;28;20068;-76
2023/05/12 06:06:17;;;;;;;1.70;1.17;;;24.10;56.40;;;;;;4105266;28;20055;-73
2023/05/12 06:08:40;;;;;;;2.08;0.85;;;24.10;56.40;;;;;;4120320;28;20057;-75
2023/05/12 06:11:03;;;;;;;2.55;0.95;;;24.10;56.50;;;;;;4116258;28;20077;-76
2023/05/12 06:13:25;;;;;;;1.02;0.82;;;24.10;56.60;;;;;;4103338;28;20035;-75
2023/05/12 06:15:49;;;;;;;2.03;0.90;;;24.10;56.60;;;;;;4118866;28;20049;-76
2023/05/12 06:18:11;;;;;;;2.00;1.05;;;24.10;56.60;;;;;;4115727;28;20033;-74
2023/05/12 06:20:34;;;;;;;1.67;0.88;;;24.10;56.60;;;;;;4122677;28;20192;-75
2023/05/12 06:22:56;;;;;;;2.85;0.95;;;24.10;56.60;;;;;;4119813;28;20074;-77
2023/05/12 06:25:19;;;;;;;1.48;0.80;;;24.10;56.60;;;;;;4107293;28;20144;-76
2023/05/12 06:27:42;;;;;;;1.63;1.10;;;24.20;56.80;;;;;;4124390;28;20621;-76
2023/05/12 06:30:04;;;;;;;1.15;0.90;;;24.20;56.70;;;;;;4119588;28;20077;-80
2023/05/12 06:32:27;;;;;;;1.52;0.90;;;24.30;56.60;;;;;;4118155;28;20043;-82
2023/05/12 06:34:52;;;;;;;1.17;0.82;;;24.50;56.30;;;;;;4125354;28;20045;-77
2023/05/12 06:37:14;;;;;;;2.03;1.33;;;25.00;55.40;;;;;;4129070;28;20305;-74
2023/05/12 06:39:37;;;;;;;2.00;0.95;;;25.40;53.70;;;;;;4128177;28;20068;-76
2023/05/12 06:41:59;;;;;;;1.40;0.80;;;25.70;53.30;;;;;;4130040;28;20045;-77
2023/05/12 06:44:22;;;;;;;1.30;0.82;;;25.50;53.30;;;;;;4125943;28;20058;-74
2023/05/12 06:46:44;;;;;;;2.58;0.80;;;25.20;53.90;;;;;;4122017;28;20065;-76
2023/05/12 06:49:07;;;;;;;1.33;0.90;;;25.10;54.00;;;;;;4131060;28;20030;-81
2023/05/12 06:51:29;;;;;;;1.58;0.88;;;25.00;54.20;;;;;;4127027;28;20038;-73
2023/05/12 06:53:52;;;;;;;2.08;0.80;;;24.80;54.60;;;;;;4139085;28;20136;-75
2023/05/12 08:05:49;;;;;;;14.95;8.85;;;23.20;58.40;;;;;;589078;26;20382;-55
2023/05/12 08:08:15;;;;;;;18.92;9.13;;;23.10;58.40;;;;;;4134254;28;20430;-52
2023/05/12 08:10:37;;;;;;;15.10;8.02;;;23.10;58.50;;;;;;4134335;28;20482;-51
2023/05/12 08:13:00;;;;;;;17.17;8.45;;;23.00;58.50;;;;;;4149202;28;20064;-50
2023/05/12 08:15:22;;;;;;;12.80;7.43;;;23.00;58.60;;;;;;4147899;28;20557;-54
2023/05/12 08:17:45;;;;;;;12.63;6.80;;;23.00;58.70;;;;;;4151229;28;20515;-55
2023/05/12 08:20:08;;;;;;;11.63;6.45;;;22.90;58.80;;;;;;4142446;28;20051;-51
2023/05/12 08:22:31;;;;;;;10.45;5.95;;;22.90;58.90;;;;;;4155596;28;20042;-52
2023/05/12 08:24:53;;;;;;;12.07;6.13;;;22.80;58.90;;;;;;4151922;28;20532;-49
2023/05/12 08:27:16;;;;;;;8.80;5.32;;;22.80;59.00;;;;;;4152670;28;20044;-50
2023/05/12 08:29:38;;;;;;;9.48;5.35;;;22.80;59.00;;;;;;4152749;28;20713;-51
2023/05/12 08:32:01;;;;;;;10.25;5.65;;;22.80;59.10;;;;;;4158225;28;20045;-48
2023/05/12 08:34:27;;;;;;;8.15;5.18;;;22.70;59.20;;;;;;4154457;28;20117;-49
2023/05/12 08:36:49;;;;;;;7.45;4.35;;;22.70;59.20;;;;;;4157215;28;20461;-49
2023/05/12 08:39:12;;;;;;;7.43;4.40;;;22.70;59.30;;;;;;4156317;28;20048;-54
2023/05/12 08:42:01;;;;;;;8.68;4.65;;;22.60;59.30;;;;;;4157433;28;20041;-49
2023/05/12 08:44:24;;;;;;;7.80;4.55;;;22.60;59.40;;;;;;4153841;28;20071;-49
2023/05/12 08:46:47;;;;;;;7.35;4.43;;;22.60;59.50;;;;;;4157144;28;20041;-52
2023/05/12 08:49:15;;;;;;;6.45;3.80;;;22.60;59.60;;;;;;4154836;28;20041;-50
2023/05/12 08:51:40;;;;;;;6.10;3.90;;;22.50;59.60;;;;;;4158491;28;20152;-53
2023/05/12 08:54:04;;;;;;;7.10;3.47;;;22.50;59.60;;;;;;4153736;28;20037;-52
2023/05/12 08:56:27;;;;;;;6.20;3.55;;;22.50;59.70;;;;;;4154442;28;20157;-51
2023/05/12 08:58:52;;;;;;;6.60;3.70;;;22.40;59.80;;;;;;4156261;28;20095;-51
2023/05/12 09:01:16;;;;;;;6.90;3.55;;;22.40;59.80;;;;;;4155091;28;20041;-54
2023/05/12 09:03:39;;;;;;;5.38;3.15;;;22.40;59.90;;;;;;4153246;28;20041;-51
2023/05/12 09:06:02;;;;;;;4.70;3.20;;;22.40;60.00;;;;;;4156596;28;20060;-49
2023/05/12 09:08:27;;;;;;;5.32;3.35;;;22.30;60.00;;;;;;4153324;28;20041;-55
2023/05/12 09:10:50;;;;;;;6.03;3.40;;;22.30;60.00;;;;;;4155589;28;20052;-49
2023/05/12 09:13:44;;;;;;;6.20;3.20;;;22.30;60.10;;;;;;4156075;28;20454;-51
2023/05/12 09:16:12;;;;;;;5.63;3.05;;;22.30;60.20;;;;;;4142377;28;20510;-50
2023/05/12 09:19:03;;;;;;;4.28;3.00;;;22.20;60.20;;;;;;4149593;28;20515;-50
2023/05/12 09:21:26;;;;;;;4.35;2.58;;;22.20;60.30;;;;;;4149786;28;20033;-51
2023/05/12 09:23:59;;;;;;;4.85;2.53;;;22.20;60.30;;;;;;4156176;28;20049;-53
2023/05/12 09:26:23;;;;;;;4.35;2.63;;;22.20;60.40;;;;;;4155561;28;20056;-49
2023/05/12 09:28:45;;;;;;;5.55;3.00;;;22.20;60.50;;;;;;4155818;28;20041;-51
2023/05/12 09:31:28;;;;;;;5.05;2.78;;;22.10;60.50;;;;;;4145369;28;20045;-52
2023/05/12 09:33:51;;;;;;;4.28;2.55;;;22.10;60.50;;;;;;4150280;28;20116;-51
2023/05/12 09:36:24;;;;;;;4.93;2.72;;;22.10;60.60;;;;;;4153970;28;20318;-53
2023/05/12 09:38:58;;;;;;;4.35;2.60;;;22.00;60.60;;;;;;4142652;28;20037;-52
2023/05/12 09:41:23;;;;;;;3.92;2.42;;;22.10;60.70;;;;;;4154385;28;20041;-50
2023/05/12 09:43:45;;;;;;;4.00;2.53;;;22.00;60.80;;;;;;4155012;28;20033;-51
2023/05/12 09:46:08;;;;;;;4.55;2.58;;;22.00;60.80;;;;;;4154540;28;20057;-52
2023/05/12 09:48:31;;;;;;;4.55;2.58;;;22.00;60.80;;;;;;4150922;28;20044;-53
2023/05/12 09:50:54;;;;;;;4.10;2.67;;;22.00;61.00;;;;;;4155967;28;20046;-50
2023/05/12 09:53:18;;;;;;;3.97;2.35;;;22.00;61.00;;;;;;4150483;28;20567;-52
2023/05/12 09:55:43;;;;;;;5.07;2.45;;;21.90;61.00;;;;;;4156881;28;20045;-53
2023/05/12 09:58:09;;;;;;;5.50;2.72;;;21.90;61.00;;;;;;4154295;28;20038;-51
2023/05/12 10:00:32;;;;;;;4.35;2.67;;;21.90;61.10;;;;;;4154110;28;20530;-54
2023/05/12 10:02:55;;;;;;;4.78;2.35;;;21.90;61.10;;;;;;4151927;28;20037;-53
2023/05/12 10:05:21;;;;;;;4.15;2.40;;;21.90;61.20;;;;;;4152163;28;20111;-54
2023/05/12 10:07:53;;;;;;;4.15;2.47;;;21.80;61.20;;;;;;4153897;28;20408;-54
2023/05/12 10:10:19;;;;;;;4.35;2.60;;;21.80;61.20;;;;;;4150478;28;20033;-52
2023/05/12 10:12:42;;;;;;;3.95;2.50;;;21.80;61.20;;;;;;4154011;28;20068;-52
2023/05/12 10:15:05;;;;;;;3.92;2.47;;;21.80;61.30;;;;;;4155158;28;20111;-50
2023/05/12 10:17:29;;;;;;;3.40;2.38;;;21.70;61.20;;;;;;4147780;28;20037;-51
2023/05/12 10:19:53;;;;;;;3.58;2.20;;;21.70;61.30;;;;;;4155215;28;20037;-52
2023/05/12 10:22:16;;;;;;;4.10;2.58;;;21.70;61.40;;;;;;4156976;28;20073;-48
2023/05/12 10:24:40;;;;;;;3.83;2.78;;;21.70;61.40;;;;;;4151327;28;20048;-53
2023/05/12 10:27:07;;;;;;;3.55;2.42;;;21.70;61.50;;;;;;4156231;28;20037;-52
2023/05/12 10:29:31;;;;;;;4.22;2.47;;;21.70;61.50;;;;;;4154232;28;20048;-55
2023/05/12 10:31:55;;;;;;;4.20;2.40;;;21.60;61.50;;;;;;4150098;28;20052;-49
2023/05/12 10:34:20;;;;;;;;;;;21.60;61.60;;;;;;4151960;28;20069;-55
2023/05/12 10:36:46;;;;;;;;;;;21.60;61.50;;;;;;4143392;28;19916;-55
2023/05/12 10:39:09;;;;;;;3.75;2.55;;;21.60;61.60;;;;;;4127041;28;19924;-51
2023/05/12 10:41:35;;;;;;;3.65;2.75;;;21.60;61.70;;;;;;4154096;28;20037;-50
2023/05/12 10:43:57;;;;;;;4.90;2.70;;;21.60;61.70;;;;;;4152279;28;20130;-48
2023/05/12 10:46:23;;;;;;;3.97;2.63;;;21.60;61.70;;;;;;4148944;28;20053;-51
2023/05/12 10:49:07;;;;;;;4.53;2.70;;;21.50;61.70;;;;;;4152002;28;20045;-51
2023/05/12 10:51:31;;;;;;;3.88;2.70;;;21.50;61.80;;;;;;4148401;28;20490;-53
2023/05/12 10:54:02;;;;;;;3.28;2.53;;;21.50;61.80;;;;;;4158246;28;20130;-52
2023/05/12 10:56:39;;;;;;;4.63;3.15;;;21.50;62.20;;;;;;4143196;28;20037;-53
2023/05/12 10:59:22;;;;;;;4.18;2.85;;;21.50;61.90;;;;;;4145123;28;20073;-53
2023/05/12 11:01:57;;;;;;;3.92;2.67;;;21.40;62.00;;;;;;4144344;28;20099;-55
2023/05/12 11:04:21;;;;;;;3.38;2.58;;;21.40;62.00;;;;;;4143717;28;21030;-55
2023/05/12 11:06:44;;;;;;;4.63;2.47;;;21.40;62.10;;;;;;4154486;28;20530;-51
2023/05/12 11:09:06;;;;;;;4.43;2.63;;;21.40;62.10;;;;;;4149667;28;20426;-54
2023/05/12 11:11:29;;;;;;;4.35;2.72;;;21.40;62.10;;;;;;4145746;28;21476;-54
2023/05/12 11:13:52;;;;;;;3.65;2.40;;;21.40;62.20;;;;;;4150400;28;20140;-54
2023/05/12 11:16:14;;;;;;;3.38;2.60;;;21.40;62.20;;;;;;4144290;28;20514;-53
2023/05/12 11:18:37;;;;;;;3.90;2.47;;;21.40;62.20;;;;;;4139243;28;20044;-53
2023/05/12 11:21:10;;;;;;;3.83;2.40;;;21.30;62.10;;;;;;4149078;28;20053;-51
2023/05/12 11:23:33;;;;;;;4.45;2.53;;;21.30;62.10;;;;;;4151898;28;20522;-55
2023/05/12 11:25:56;;;;;;;3.55;2.20;;;21.30;62.20;;;;;;4143866;28;20128;-52
2023/05/12 11:28:18;;;;;;;4.07;2.13;;;21.30;62.20;;;;;;4139852;28;20092;-52
2023/05/12 11:30:51;;;;;;;3.22;2.10;;;21.30;62.20;;;;;;4143531;28;20034;-51
2023/05/12 11:33:18;;;;;;;3.75;2.50;;;21.30;62.30;;;;;;4145183;28;20113;-53
2023/05/12 11:35:41;;;;;;;2.95;2.25;;;21.30;62.30;;;;;;4150862;28;20037;-52
2023/05/12 11:38:15;;;;;;;4.13;2.42;;;21.30;62.30;;;;;;4144989;28;20443;-53
2023/05/12 11:40:40;;;;;;;;;;;21.20;62.30;;;;;;4144822;28;20080;-54
2023/05/12 11:43:09;;;;;;;3.17;2.05;;;21.20;62.30;;;;;;4148087;28;20314;-52
2023/05/12 11:45:34;;;;;;;2.22;1.88;;;21.20;62.40;;;;;;4138334;28;20531;-53
2023/05/12 11:48:13;;;;;;;2.50;2.00;;;21.20;62.50;;;;;;4147569;28;20087;-54
2023/05/12 11:50:45;;;;;;;3.25;1.90;;;21.20;62.40;;;;;;4130267;28;20432;-53
2023/05/12 11:53:16;;;;;;;3.65;2.20;;;21.20;62.50;;;;;;4142923;28;20041;-53
2023/05/12 11:55:46;;;;;;;3.80;2.35;;;21.20;62.50;;;;;;4140746;28;20042;-52
2023/05/12 11:58:11;;;;;;;2.80;1.95;;;21.20;62.60;;;;;;4144550;28;20038;-50
2023/05/12 12:00:35;;;;;;;2.53;1.70;;;21.20;62.60;;;;;;4143870;28;20041;-52
2023/05/12 12:03:11;;;;;;;2.38;2.03;;;21.20;62.70;;;;;;4137765;28;20038;-54
2023/05/12 12:05:34;;;;;;;3.30;2.10;;;21.10;62.70;;;;;;4137631;28;20712;-54
2023/05/12 12:08:14;;;;;;;2.78;1.88;;;21.10;62.60;;;;;;4144510;28;20117;-54
2023/05/12 12:10:37;;;;;;;2.25;1.70;;;21.10;62.70;;;;;;4148958;28;20056;-54
2023/05/12 12:13:01;;;;;;;2.88;1.98;;;21.10;62.80;;;;;;4145770;28;20421;-54
2023/05/12 12:15:23;;;;;;;3.22;2.10;;;21.10;63.00;;;;;;4142547;28;20045;-54
2023/05/12 12:17:45;;;;;;;2.38;1.85;;;21.10;63.00;;;;;;4140568;28;20042;-53
2023/05/12 12:20:08;;;;;;;2.20;1.80;;;21.10;63.00;;;;;;4139476;28;20065;-51
2023/05/12 12:22:33;;;;;;;2.83;1.85;;;21.10;63.00;;;;;;4147312;28;20350;-53
2023/05/12 12:24:54;;;;;;;;;;;21.10;63.10;;;;;;4151301;28;20037;-51
2023/05/12 12:27:17;;;;;;;3.20;1.70;;;21.00;63.00;;;;;;4146166;28;20003;-53
2023/05/12 12:29:39;;;;;;;2.30;1.60;;;21.00;63.00;;;;;;4145644;28;20053;-51
2023/05/12 12:32:02;;;;;;;2.67;1.63;;;21.00;63.10;;;;;;4144675;28;20033;-53
2023/05/12 12:34:24;;;;;;;2.85;1.60;;;21.00;63.10;;;;;;4147024;28;20104;-55
2023/05/12 12:36:47;;;;;;;2.13;1.73;;;21.00;63.20;;;;;;4150151;28;20044;-54
2023/05/12 12:39:09;;;;;;;2.33;1.50;;;21.00;63.20;;;;;;4144057;28;20069;-56
2023/05/12 12:41:32;;;;;;;1.80;1.30;;;21.00;63.30;;;;;;4142437;28;20131;-52
2023/05/12 12:43:54;;;;;;;2.78;1.98;;;20.90;63.20;;;;;;4138407;28;20542;-54
2023/05/12 12:46:17;;;;;;;1.92;1.50;;;20.90;63.70;;;;;;4142093;28;20045;-51
2023/05/12 12:48:40;;;;;;;2.35;1.80;;;20.90;63.30;;;;;;4140791;28;20511;-52
2023/05/12 12:51:02;;;;;;;2.80;1.80;;;20.90;63.40;;;;;;4145213;28;20077;-49
2023/05/12 12:53:25;;;;;;;3.15;1.80;;;20.90;63.40;;;;;;4141545;28;20270;-52
2023/05/12 12:55:48;;;;;;;2.90;1.73;;;20.90;63.40;;;;;;4143546;28;20045;-54
2023/05/12 12:58:10;;;;;;;2.72;1.88;;;20.90;63.50;;;;;;4142987;28;20045;-51
2023/05/12 13:00:33;;;;;;;2.95;2.05;;;20.80;63.40;;;;;;4141737;28;20156;-54
2023/05/12 13:02:55;;;;;;;3.15;1.90;;;20.90;63.40;;;;;;4139677;28;20523;-54
2023/05/12 13:05:18;;;;;;;3.20;1.85;;;20.90;63.50;;;;;;4143423;28;20069;-53
2023/05/12 13:07:40;;;;;;;2.97;1.85;;;20.90;63.50;;;;;;4144780;28;20092;-53
2023/05/12 13:10:03;;;;;;;2.67;1.90;;;20.80;63.50;;;;;;4147990;28;20481;-49
2023/05/12 13:12:28;;;;;;;3.63;2.23;;;20.80;63.50;;;;;;4136662;28;20066;-53
2023/05/12 13:14:50;;;;;;;;;;;20.80;63.50;;;;;;4145119;28;20646;-51
2023/05/12 13:17:12;;;;;;;2.65;1.90;;;20.80;63.50;;;;;;4155104;28;20020;-50
2023/05/12 13:19:34;;;;;;;3.03;2.00;;;20.80;63.50;;;;;;4147483;28;20103;-54
2023/05/12 13:21:57;;;;;;;3.35;2.00;;;20.80;63.50;;;;;;4155936;28;20038;-51
2023/05/12 13:24:19;;;;;;;2.90;2.00;;;20.70;63.40;;;;;;4149054;28;20076;-50
2023/05/12 13:26:42;;;;;;;2.45;1.60;;;20.80;63.50;;;;;;4155848;28;20239;-54
2023/05/12 13:29:04;;;;;;;2.20;1.73;;;20.70;63.40;;;;;;4147080;28;20564;-54
2023/05/12 13:31:26;;;;;;;3.40;2.03;;;20.70;63.50;;;;;;4150430;28;20079;-53
2023/05/12 13:33:49;;;;;;;2.63;1.90;;;20.70;63.50;;;;;;4152521;28;20463;-52
2023/05/12 13:36:12;;;;;;;3.20;2.10;;;20.70;63.50;;;;;;4151573;28;20048;-53
2023/05/12 13:38:34;;;;;;;2.65;2.08;;;20.70;63.50;;;;;;4156946;28;20037;-49
2023/05/12 13:40:57;;;;;;;3.03;2.00;;;20.70;63.50;;;;;;4150914;28;20045;-51
2023/05/12 13:43:20;;;;;;;2.80;1.80;;;20.60;63.50;;;;;;4154696;28;20037;-53
2023/05/12 13:45:42;;;;;;;2.90;1.73;;;20.70;64.10;;;;;;4151963;28;20045;-54